Time;durP1;ratioP1;P1;durP2;ratioP2;P2;SDS_P1;SDS_P2;PMS_P1;PMS_P2;Temp;Humidity;BMP_temperature;BMP_pressure;BME280_temperature;BME280_humidity;BME280_pressure;Samples;Min_cycle;Max_cycle;Signal;HPM_P1;HPM_P2
2022/06/25 00:00:34;;;;;;;6.70;4.80;;;;;;;;;;5051254;28;20667;-86
2022/06/25 00:03:13;;;;;;;4.63;4.10;;;;;;;;;;5051395;28;20259;-86
2022/06/25 00:05:58;;;;;;;5.17;4.47;;;;;;;;;;5054908;28;20194;-86
2022/06/25 00:08:28;;;;;;;4.13;3.83;;;;;;;;;;5055584;28;20414;-85
2022/06/25 00:10:58;;;;;;;4.97;4.47;;;;;;;;;;5055708;28;20202;-86
2022/06/25 00:13:27;;;;;;;4.80;4.50;;;;;;;;;;5054986;28;20671;-86
2022/06/25 00:15:59;;;;;;;5.17;4.67;;;;;;;;;;5055229;28;20630;-86
2022/06/25 00:18:26;;;;;;;4.50;4.20;;;;;;;;;;5055078;28;20209;-85
2022/06/25 00:20:53;;;;;;;4.30;3.90;;;;;;;;;;5054901;28;20206;-85
2022/06/25 00:23:20;;;;;;;4.73;4.33;;;;;;;;;;5055053;28;20186;-84
2022/06/25 00:25:47;;;;;;;4.30;3.90;;;;;;;;;;5055014;28;20205;-85
2022/06/25 00:28:27;;;;;;;4.70;4.40;;;;;;;;;;5055077;28;20729;-86
2022/06/25 00:30:54;;;;;;;4.60;4.13;;;;;;;;;;5054852;28;20205;-86
2022/06/25 00:33:28;;;;;;;4.00;3.80;;;;;;;;;;5054745;28;20201;-86
2022/06/25 00:35:56;;;;;;;4.97;4.47;;;;;;;;;;5054845;28;20225;-86
2022/06/25 00:38:23;;;;;;;4.67;4.27;;;;;;;;;;5054694;28;20193;-86
2022/06/25 00:40:53;;;;;;;4.90;4.47;;;;;;;;;;5054604;28;20678;-86
2022/06/25 00:43:20;;;;;;;4.83;4.40;;;;;;;;;;5054987;28;20205;-85
2022/06/25 00:45:47;;;;;;;6.17;4.93;;;;;;;;;;5054752;28;20201;-85
2022/06/25 00:48:17;;;;;;;5.50;5.00;;;;;;;;;;5054855;28;20220;-85
2022/06/25 00:50:49;;;;;;;4.77;4.40;;;;;;;;;;5054768;28;20212;-86
2022/06/25 00:53:17;;;;;;;3.93;3.73;;;;;;;;;;5054700;28;20276;-85
2022/06/25 00:55:48;;;;;;;4.60;4.20;;;;;;;;;;5054386;28;20591;-86
2022/06/25 00:58:16;;;;;;;5.20;4.67;;;;;;;;;;5054227;28;20663;-86
2022/06/25 01:00:47;;;;;;;9.67;4.53;;;;;;;;;;5054673;28;20204;-86
2022/06/25 01:03:16;;;;;;;4.63;4.23;;;;;;;;;;5054609;28;20201;-85
2022/06/25 01:05:44;;;;;;;6.03;5.50;;;;;;;;;;5054263;28;20201;-85
2022/06/25 01:08:13;;;;;;;5.03;4.53;;;;;;;;;;5053869;28;20197;-85
2022/06/25 01:10:49;;;;;;;4.07;3.80;;;;;;;;;;5054035;28;20689;-86
2022/06/25 01:13:18;;;;;;;7.00;4.63;;;;;;;;;;5054070;28;20205;-86
2022/06/25 01:15:45;;;;;;;4.63;4.33;;;;;;;;;;5054212;28;20602;-86
2022/06/25 01:18:27;;;;;;;5.37;3.90;;;;;;;;;;5053922;28;20193;-86
2022/06/25 01:20:54;;;;;;;7.43;4.47;;;;;;;;;;5053772;28;20201;-85
2022/06/25 01:23:23;;;;;;;4.73;4.43;;;;;;;;;;5053883;28;20205;-85
2022/06/25 01:25:56;;;;;;;4.97;4.50;;;;;;;;;;5054253;28;20204;-85
2022/06/25 01:28:23;;;;;;;4.90;4.50;;;;;;;;;;5054037;28;20577;-85
2022/06/25 01:30:56;;;;;;;4.93;4.53;;;;;;;;;;5053567;28;20197;-86
2022/06/25 01:33:32;;;;;;;6.20;4.20;;;;;;;;;;5053814;28;20243;-85
2022/06/25 01:35:59;;;;;;;5.23;4.73;;;;;;;;;;5053714;28;20303;-86
2022/06/25 01:38:28;;;;;;;5.43;4.77;;;;;;;;;;5053879;28;20202;-85
2022/06/25 01:40:55;;;;;;;4.67;4.13;;;;;;;;;;5053908;28;20194;-86
2022/06/25 01:43:22;;;;;;;4.20;3.90;;;;;;;;;;5053808;28;20570;-86
2022/06/25 01:45:58;;;;;;;4.47;4.17;;;;;;;;;;5053838;28;20198;-86
2022/06/25 01:48:25;;;;;;;4.70;4.30;;;;;;;;;;5053516;28;20205;-86
2022/06/25 01:50:52;;;;;;;6.13;4.33;;;;;;;;;;5053286;28;20198;-85
2022/06/25 01:53:27;;;;;;;4.63;4.23;;;;;;;;;;5053212;28;20194;-86
2022/06/25 01:55:57;;;;;;;5.00;4.10;;;;;;;;;;5053380;28;20621;-85
2022/06/25 01:58:36;;;;;;;8.13;5.33;;;;;;;;;;5053213;28;20590;-86
2022/06/25 02:01:06;;;;;;;4.93;4.53;;;;;;;;;;5053048;28;20212;-86
2022/06/25 02:03:42;;;;;;;4.80;4.37;;;;;;;;;;5053283;28;20197;-85
2022/06/25 02:06:18;;;;;;;6.10;4.40;;;;;;;;;;5053134;28;20201;-86
2022/06/25 02:08:59;;;;;;;4.87;4.47;;;;;;;;;;5053135;28;20204;-86
2022/06/25 02:11:26;;;;;;;6.60;4.50;;;;;;;;;;5052827;28;20237;-86
2022/06/25 02:13:53;;;;;;;5.33;4.17;;;;;;;;;;5052730;28;20554;-85
2022/06/25 02:16:30;;;;;;;5.07;4.67;;;;;;;;;;5053316;28;20233;-86
2022/06/25 02:18:57;;;;;;;4.27;3.93;;;;;;;;;;5052841;28;20201;-86
2022/06/25 02:21:24;;;;;;;3.90;3.70;;;;;;;;;;5052658;28;20241;-85
2022/06/25 02:23:58;;;;;;;8.37;4.13;;;;;;;;;;5052966;28;20201;-86
2022/06/25 02:26:25;;;;;;;4.17;3.87;;;;;;;;;;5052530;28;20197;-86
2022/06/25 02:28:58;;;;;;;4.50;3.90;;;;;;;;;;5052294;28;20202;-86
2022/06/25 02:31:25;;;;;;;4.23;3.93;;;;;;;;;;5052814;28;20189;-86
2022/06/25 02:33:56;;;;;;;5.47;4.40;;;;;;;;;;5052360;28;20259;-86
2022/06/25 02:36:35;;;;;;;4.60;4.20;;;;;;;;;;5052661;28;20222;-86
2022/06/25 02:39:04;;;;;;;5.03;4.07;;;;;;;;;;5052500;28;20197;-86
2022/06/25 02:41:31;;;;;;;4.17;3.77;;;;;;;;;;5052796;28;20202;-86
2022/06/25 02:44:05;;;;;;;6.60;4.27;;;;;;;;;;5052307;28;20211;-86
2022/06/25 02:46:32;;;;;;;3.60;3.30;;;;;;;;;;5052259;28;20198;-85
2022/06/25 02:49:24;;;;;;;4.20;3.90;;;;;;;;;;5052484;28;20206;-85
2022/06/25 02:52:04;;;;;;;5.50;4.10;;;;;;;;;;5052514;28;20204;-84
2022/06/25 02:54:32;;;;;;;5.47;3.87;;;;;;;;;;5052218;28;20223;-84
2022/06/25 02:59:50;;;;;;;4.40;4.10;;;;;;;;;;5052388;28;20181;-84
2022/06/25 03:02:20;;;;;;;4.27;3.97;;;;;;;;;;5052597;28;20627;-85
2022/06/25 03:04:55;;;;;;;4.50;4.20;;;;;;;;;;5052126;28;20628;-84
2022/06/25 03:07:23;;;;;;;5.77;5.30;;;;;;;;;;5052368;28;20630;-84
2022/06/25 03:09:54;;;;;;;4.33;4.03;;;;;;;;;;5052189;28;20201;-84
2022/06/25 03:12:21;;;;;;;4.10;3.77;;;;;;;;;;5051902;28;20205;-85
2022/06/25 03:14:52;;;;;;;5.57;4.60;;;;;;;;;;5051856;28;20693;-84
2022/06/25 03:17:28;;;;;;;4.00;3.70;;;;;;;;;;5052251;28;20644;-84
2022/06/25 03:20:01;;;;;;;3.87;3.57;;;;;;;;;;5051719;28;20235;-84
2022/06/25 03:22:40;;;;;;;5.30;4.07;;;;;;;;;;5051440;28;20244;-85
2022/06/25 03:25:10;;;;;;;4.53;3.90;;;;;;;;;;5051769;28;20212;-84
2022/06/25 03:27:40;;;;;;;4.37;3.87;;;;;;;;;;5052198;28;20200;-84
2022/06/25 03:30:10;;;;;;;4.30;3.90;;;;;;;;;;5051648;28;20585;-84
2022/06/25 03:32:40;;;;;;;4.80;4.47;;;;;;;;;;5051779;28;20709;-85
2022/06/25 03:35:10;;;;;;;4.67;4.27;;;;;;;;;;5052014;28;20577;-84
2022/06/25 03:37:40;;;;;;;4.70;4.30;;;;;;;;;;5051307;28;20229;-86
2022/06/25 03:40:10;;;;;;;4.23;3.93;;;;;;;;;;5055848;28;20193;-84
2022/06/25 03:42:37;;;;;;;4.20;3.77;;;;;;;;;;5056019;28;20763;-85
2022/06/25 03:45:16;;;;;;;4.87;3.90;;;;;;;;;;5055866;28;20200;-85
2022/06/25 03:47:50;;;;;;;4.47;4.17;;;;;;;;;;5055572;28;20200;-85
2022/06/25 03:50:17;;;;;;;4.63;3.93;;;;;;;;;;5055805;28;20212;-85
2022/06/25 03:52:45;;;;;;;4.27;3.70;;;;;;;;;;5055552;28;20574;-84
2022/06/25 03:55:23;;;;;;;4.67;3.70;;;;;;;;;;5055743;28;20608;-84
2022/06/25 03:57:50;;;;;;;4.00;3.70;;;;;;;;;;5055541;28;20288;-83
2022/06/25 04:00:20;;;;;;;4.73;3.60;;;;;;;;;;5055798;28;20204;-84
2022/06/25 04:02:47;;;;;;;4.47;4.13;;;;;;;;;;5055841;28;20262;-84
2022/06/25 04:05:17;;;;;;;3.23;3.03;;;;;;;;;;5055544;28;20205;-85
2022/06/25 04:07:50;;;;;;;3.63;3.43;;;;;;;;;;5055624;28;20663;-84
2022/06/25 04:10:27;;;;;;;4.93;3.60;;;;;;;;;;5055596;28;20284;-84
2022/06/25 04:12:55;;;;;;;5.30;3.50;;;;;;;;;;5055784;28;20197;-84
2022/06/25 04:15:22;;;;;;;3.70;3.40;;;;;;;;;;5055001;28;20198;-84
2022/06/25 04:17:49;;;;;;;3.93;3.63;;;;;;;;;;5055260;28;20232;-85
2022/06/25 04:20:16;;;;;;;3.70;3.40;;;;;;;;;;5055401;28;20220;-84
2022/06/25 04:22:43;;;;;;;5.83;3.60;;;;;;;;;;5053623;28;20244;-84
2022/06/25 04:25:30;;;;;;;3.63;3.17;;;;;;;;;;5054850;28;20248;-84
2022/06/25 04:30:42;;;;;;;3.93;3.27;;;;;;;;;;5055145;28;20191;-84
2022/06/25 04:33:15;;;;;;;4.00;3.67;;;;;;;;;;5054904;28;20213;-84
2022/06/25 04:35:43;;;;;;;3.10;2.90;;;;;;;;;;5055078;28;20198;-84
2022/06/25 04:38:25;;;;;;;3.60;3.30;;;;;;;;;;5054755;28;20244;-84
2022/06/25 04:40:53;;;;;;;3.63;3.33;;;;;;;;;;5054841;28;20205;-84
2022/06/25 04:43:21;;;;;;;3.40;3.10;;;;;;;;;;5054642;28;20197;-84
2022/06/25 04:46:00;;;;;;;3.80;3.50;;;;;;;;;;5054987;28;20197;-84
2022/06/25 04:48:30;;;;;;;3.90;3.63;;;;;;;;;;5055002;28;20189;-84
2022/06/25 04:50:57;;;;;;;3.87;3.40;;;;;;;;;;5054467;28;20210;-84
2022/06/25 04:53:30;;;;;;;3.83;3.13;;;;;;;;;;5054368;28;20606;-84
2022/06/25 04:55:58;;;;;;;4.57;3.40;;;;;;;;;;5054988;28;20233;-84
2022/06/25 04:58:25;;;;;;;5.40;3.40;;;;;;;;;;5054405;28;20259;-83
2022/06/25 05:00:53;;;;;;;6.37;3.87;;;;;;;;;;5054212;28;20205;-84
2022/06/25 05:03:29;;;;;;;4.33;3.97;;;;;;;;;;5054522;28;20198;-84
2022/06/25 05:05:56;;;;;;;4.93;3.47;;;;;;;;;;5054376;28;20205;-84
2022/06/25 05:08:30;;;;;;;4.13;3.80;;;;;;;;;;5054392;28;20263;-83
2022/06/25 05:10:58;;;;;;;4.07;3.40;;;;;;;;;;5054599;28;20210;-84
2022/06/25 05:13:31;;;;;;;3.60;2.97;;;;;;;;;;5054458;28;20194;-83
2022/06/25 05:15:59;;;;;;;5.53;3.80;;;;;;;;;;5054386;28;20202;-84
2022/06/25 05:18:38;;;;;;;3.77;3.47;;;;;;;;;;5054270;28;20225;-85
2022/06/25 05:21:08;;;;;;;3.67;3.37;;;;;;;;;;5053734;28;20205;-84
2022/06/25 05:23:38;;;;;;;3.87;3.57;;;;;;;;;;5053796;28;20197;-84
2022/06/25 05:26:21;;;;;;;3.90;3.60;;;;;;;;;;5054500;28;20561;-84
2022/06/25 05:28:51;;;;;;;3.73;3.43;;;;;;;;;;5053648;28;20205;-84
2022/06/25 05:31:18;;;;;;;6.43;4.30;;;;;;;;;;5054032;28;20205;-84
2022/06/25 05:33:51;;;;;;;4.07;3.47;;;;;;;;;;5053735;28;20205;-83
2022/06/25 05:36:18;;;;;;;3.90;3.60;;;;;;;;;;5053987;28;20690;-84
2022/06/25 05:38:51;;;;;;;9.83;3.87;;;;;;;;;;5053888;28;20194;-84
2022/06/25 05:41:29;;;;;;;3.80;3.50;;;;;;;;;;5053799;28;20201;-84
2022/06/25 05:43:56;;;;;;;4.83;3.43;;;;;;;;;;5053264;28;20205;-84
2022/06/25 05:46:26;;;;;;;3.40;3.10;;;;;;;;;;5053747;28;20204;-84
2022/06/25 05:48:53;;;;;;;3.57;3.23;;;;;;;;;;5053700;28;20202;-84
2022/06/25 05:51:26;;;;;;;6.50;3.43;;;;;;;;;;5053637;28;20201;-85
2022/06/25 05:53:59;;;;;;;3.63;3.33;;;;;;;;;;5052927;28;20198;-84
2022/06/25 05:56:40;;;;;;;6.37;3.13;;;;;;;;;;5053486;28;20239;-85
2022/06/25 05:59:12;;;;;;;3.70;3.40;;;;;;;;;;5053521;28;20546;-85
2022/06/25 06:01:39;;;;;;;5.30;3.40;;;;;;;;;;5052311;28;20202;-84
2022/06/25 06:04:06;;;;;;;4.13;3.73;;;;;;;;;;5053162;28;20190;-85
2022/06/25 06:06:34;;;;;;;3.30;3.00;;;;;;;;;;5052793;28;20251;-85
2022/06/25 06:09:01;;;;;;;3.53;3.27;;;;;;;;;;5053045;28;20194;-85
2022/06/25 06:11:28;;;;;;;4.30;3.90;;;;;;;;;;5053189;28;20626;-85
2022/06/25 06:14:03;;;;;;;9.87;4.60;;;;;;;;;;5053019;28;20202;-85
2022/06/25 06:16:30;;;;;;;9.30;3.83;;;;;;;;;;5053309;28;20271;-85
2022/06/25 06:19:03;;;;;;;7.23;3.77;;;;;;;;;;5052737;28;20225;-85
2022/06/25 06:21:30;;;;;;;8.00;3.83;;;;;;;;;;5050352;28;20305;-85
2022/06/25 06:24:00;;;;;;;14.47;4.57;;;;;;;;;;5052584;28;20191;-85
2022/06/25 06:26:27;;;;;;;3.93;3.27;;;;;;;;;;5052849;28;20744;-84
2022/06/25 06:28:55;;;;;;;3.77;3.53;;;;;;;;;;5052739;28;20204;-85
2022/06/25 06:31:23;;;;;;;4.87;3.43;;;;;;;;;;5053029;28;20206;-84
2022/06/25 06:33:50;;;;;;;3.43;3.00;;;;;;;;;;5052660;28;20190;-85
2022/06/25 06:36:20;;;;;;;4.80;3.77;;;;;;;;;;5052720;28;20281;-85
2022/06/25 06:38:47;;;;;;;4.07;3.60;;;;;;;;;;5052428;28;20225;-85
2022/06/25 06:41:24;;;;;;;3.57;3.27;;;;;;;;;;5052636;28;20190;-85
2022/06/25 06:44:09;;;;;;;3.37;2.80;;;;;;;;;;5052280;28;20189;-84
2022/06/25 06:46:38;;;;;;;4.03;3.73;;;;;;;;;;5052397;28;20201;-85
2022/06/25 06:49:05;;;;;;;7.43;3.80;;;;;;;;;;5052613;28;20578;-85
2022/06/25 06:51:32;;;;;;;3.47;3.23;;;;;;;;;;5052415;28;20555;-85
2022/06/25 06:53:59;;;;;;;5.07;3.70;;;;;;;;;;5052121;28;20678;-85
2022/06/25 06:56:27;;;;;;;3.90;3.43;;;;;;;;;;5052490;28;20205;-85
2022/06/25 06:58:54;;;;;;;3.17;2.97;;;;;;;;;;5051852;28;20768;-85
2022/06/25 07:01:21;;;;;;;3.50;3.20;;;;;;;;;;5052384;28;20236;-85
2022/06/25 07:03:53;;;;;;;5.23;3.27;;;;;;;;;;5052161;28;20252;-85
2022/06/25 07:06:26;;;;;;;3.87;3.20;;;;;;;;;;5052228;28;20225;-85
2022/06/25 07:09:11;;;;;;;4.00;3.23;;;;;;;;;;5051731;28;20198;-85
2022/06/25 07:11:39;;;;;;;5.53;3.70;;;;;;;;;;5051910;28;20255;-85
2022/06/25 07:14:06;;;;;;;4.33;2.90;;;;;;;;;;5051818;28;20674;-85
2022/06/25 07:16:39;;;;;;;3.00;2.80;;;;;;;;;;5052419;28;20208;-85
2022/06/25 07:19:26;;;;;;;4.63;3.77;;;;;;;;;;5051690;28;20780;-85
2022/06/25 07:21:54;;;;;;;4.23;3.07;;;;;;;;;;5051671;28;20240;-85
2022/06/25 07:24:22;;;;;;;13.47;3.83;;;;;;;;;;5051516;28;20232;-85
2022/06/25 07:27:01;;;;;;;5.73;2.90;;;;;;;;;;5052141;28;20209;-85
2022/06/25 07:29:31;;;;;;;5.07;3.07;;;;;;;;;;5051800;28;20197;-85
2022/06/25 07:32:01;;;;;;;3.47;2.90;;;;;;;;;;5052317;28;20198;-85
2022/06/25 07:34:30;;;;;;;4.87;3.40;;;;;;;;;;5051739;28;20202;-86
2022/06/25 07:36:57;;;;;;;4.60;3.20;;;;;;;;;;5052223;28;20624;-86
2022/06/25 07:39:27;;;;;;;3.50;2.97;;;;;;;;;;5051611;28;20212;-86
2022/06/25 07:42:00;;;;;;;4.30;3.70;;;;;;;;;;5052074;28;20204;-87
2022/06/25 07:44:27;;;;;;;3.87;3.47;;;;;;;;;;5051582;28;20666;-86
2022/06/25 07:47:01;;;;;;;6.23;3.40;;;;;;;;;;5051660;28;20206;-86
2022/06/25 07:51:56;;;;;;;5.13;3.27;;;;;;;;;;5051699;28;20190;-87
2022/06/25 07:52:19;;;;;;;3.50;3.23;;;;;;;;;;5051164;28;20650;-86
2022/06/25 07:55:04;;;;;;;3.88;3.08;;;;;;;;;;5051687;28;20202;-86
2022/06/25 07:57:31;;;;;;;4.90;2.90;;;;;;;;;;5051639;28;20257;-86
2022/06/25 07:59:58;;;;;;;3.45;3.08;;;;;;;;;;5051463;28;20251;-87
2022/06/25 08:02:31;;;;;;;2.90;2.70;;;;;;;;;;5051821;28;20284;-86
2022/06/25 08:05:02;;;;;;;4.67;2.97;;;;;;;;;;5051592;28;20256;-86
2022/06/25 08:07:33;;;;;;;4.83;2.80;;;;;;;;;;5051392;28;20216;-86
2022/06/25 08:10:00;;;;;;;4.07;3.07;;;;;;;;;;5051569;28;20212;-87
2022/06/25 08:12:30;;;;;;;3.40;3.10;;;;;;;;;;5051832;28;20209;-86
2022/06/25 08:15:00;;;;;;;7.27;3.83;;;;;;;;;;5051703;28;20198;-86
2022/06/25 08:17:27;;;;;;;3.10;2.73;;;;;;;;;;5051271;28;20671;-86
2022/06/25 08:19:54;;;;;;;3.47;2.87;;;;;;;;;;5051680;28;20220;-87
2022/06/25 08:22:29;;;;;;;3.83;3.30;;;;;;;;;;5051337;28;20230;-87
2022/06/25 08:24:57;;;;;;;3.42;3.13;;;;;;;;;;5052036;28;20224;-86
2022/06/25 08:27:26;;;;;;;3.17;2.97;;;;;;;;;;5055634;28;20205;-86
2022/06/25 08:29:59;;;;;;;3.47;3.17;;;;;;;;;;5054654;28;20667;-86
2022/06/25 08:32:27;;;;;;;5.97;3.30;;;;;;;;;;5055027;28;20671;-87
2022/06/25 08:34:54;;;;;;;3.10;2.83;;;;;;;;;;5054881;28;20205;-87
2022/06/25 08:37:21;;;;;;;3.35;3.05;;;;;;;;;;5054816;28;20198;-86
2022/06/25 08:39:52;;;;;;;3.47;3.28;;;;;;;;;;5054598;28;20611;-86
2022/06/25 08:42:22;;;;;;;4.60;3.17;;;;;;;;;;5055073;28;20197;-86
2022/06/25 08:44:49;;;;;;;5.25;3.30;;;;;;;;;;5054708;28;20210;-86
2022/06/25 08:47:22;;;;;;;4.13;3.30;;;;;;;;;;5055003;28;20198;-86
2022/06/25 08:49:53;;;;;;;3.70;3.28;;;;;;;;;;5054447;28;20251;-86
2022/06/25 08:52:20;;;;;;;3.28;2.97;;;;;;;;;;5054696;28;20198;-86
2022/06/25 08:54:48;;;;;;;4.85;2.75;;;;;;;;;;5054783;28;20201;-86
2022/06/25 08:57:22;;;;;;;3.00;2.70;;;;;;;;;;5054862;28;20725;-86
2022/06/25 08:59:50;;;;;;;2.50;2.40;;;;;;;;;;5054223;28;20189;-86
2022/06/25 09:02:22;;;;;;;2.80;2.60;;;;;;;;;;5054476;28;20197;-86
2022/06/25 09:04:49;;;;;;;3.85;2.90;;;;;;;;;;5054463;28;20194;-86
2022/06/25 09:07:22;;;;;;;5.40;3.70;;;;;;;;;;5054630;28;20197;-86
2022/06/25 09:09:53;;;;;;;3.78;2.88;;;;;;;;;;5053822;28;20293;-86
2022/06/25 09:12:24;;;;;;;8.68;3.40;;;;;;;;;;5054190;28;20374;-86
2022/06/25 09:14:51;;;;;;;5.20;3.45;;;;;;;;;;5054362;28;20209;-87
2022/06/25 09:17:21;;;;;;;5.63;3.45;;;;;;;;;;5054327;28;20205;-87
2022/06/25 09:20:00;;;;;;;4.22;3.10;;;;;;;;;;5053727;28;20217;-86
2022/06/25 09:22:28;;;;;;;4.80;3.20;;;;;;;;;;5053247;28;20241;-87
2022/06/25 09:24:59;;;;;;;4.03;3.28;;;;;;;;;;5053777;28;20194;-86
2022/06/25 09:27:37;;;;;;;6.80;3.00;;;;;;;;;;5053712;28;20186;-86
2022/06/25 09:30:09;;;;;;;5.88;2.95;;;;;;;;;;5053809;28;20732;-86
2022/06/25 09:32:43;;;;;;;4.45;3.10;;;;;;;;;;5054061;28;20186;-86
2022/06/25 09:35:11;;;;;;;3.13;2.92;;;;;;;;;;5053774;28;20597;-86
2022/06/25 09:37:42;;;;;;;4.05;3.30;;;;;;;;;;5053457;28;20275;-87
2022/06/25 09:40:16;;;;;;;3.17;2.88;;;;;;;;;;5053973;28;20288;-86
2022/06/25 09:42:47;;;;;;;3.38;2.80;;;;;;;;;;5053575;28;20185;-87
2022/06/25 09:45:27;;;;;;;3.03;2.65;;;;;;;;;;5053604;28;20197;-87
2022/06/25 09:47:56;;;;;;;3.20;2.90;;;;;;;;;;5054171;28;20236;-88
2022/06/25 09:50:23;;;;;;;3.08;2.88;;;;;;;;;;5053704;28;20201;-87
2022/06/25 09:53:00;;;;;;;2.65;2.45;;;;;;;;;;5053657;28;20206;-87
2022/06/25 09:55:28;;;;;;;6.90;3.83;;;;;;;;;;5053294;28;20201;-87
2022/06/25 09:57:57;;;;;;;3.58;3.28;;;;;;;;;;5053238;28;20205;-87
2022/06/25 10:00:31;;;;;;;3.25;2.95;;;;;;;;;;5053436;28;20228;-87
2022/06/25 10:03:07;;;;;;;6.25;3.05;;;;;;;;;;5053094;28;20198;-87
2022/06/25 10:05:38;;;;;;;4.78;2.90;;;;;;;;;;5052688;28;20205;-87
2022/06/25 10:08:07;;;;;;;4.15;3.13;;;;;;;;;;5053295;28;20543;-87
2022/06/25 10:10:39;;;;;;;3.35;3.08;;;;;;;;;;5053023;28;20281;-86
2022/06/25 10:13:26;;;;;;;3.13;2.85;;;;;;;;;;5053644;28;20265;-86
2022/06/25 10:15:55;;;;;;;6.90;2.70;;;;;;;;;;5052811;28;20248;-86
2022/06/25 10:18:31;;;;;;;3.30;2.95;;;;;;;;;;5052426;28;20309;-86
2022/06/25 10:20:59;;;;;;;3.17;2.97;;;;;;;;;;5053175;28;20193;-86
2022/06/25 10:23:42;;;;;;;2.92;2.50;;;;;;;;;;5052058;28;20233;-86
2022/06/25 10:26:09;;;;;;;2.50;2.40;;;;;;;;;;5052463;28;20197;-86
2022/06/25 10:28:41;;;;;;;3.30;3.00;;;;;;;;;;5052612;28;20198;-86
2022/06/25 10:31:23;;;;;;;3.22;2.92;;;;;;;;;;5052686;28;20222;-86
2022/06/25 10:33:54;;;;;;;3.22;2.92;;;;;;;;;;5052597;28;20271;-85
2022/06/25 10:36:41;;;;;;;2.67;2.47;;;;;;;;;;5052564;28;20201;-86
2022/06/25 10:39:38;;;;;;;3.28;2.97;;;;;;;;;;5052204;28;20205;-86
2022/06/25 10:46:10;;;;;;;2.83;2.63;;;;;;;;;;4955375;28;20255;-86
2022/06/25 10:48:38;;;;;;;4.20;2.65;;;;;;;;;;4971074;28;20201;-86
2022/06/25 10:51:05;;;;;;;3.13;2.92;;;;;;;;;;4971875;28;20228;-87
2022/06/25 10:53:42;;;;;;;3.00;2.67;;;;;;;;;;4971331;28;20197;-86
2022/06/25 10:56:16;;;;;;;2.55;2.35;;;;;;;;;;4971324;28;20201;-86
2022/06/25 10:58:49;;;;;;;4.75;2.90;;;;;;;;;;4971333;28;20657;-86
2022/06/25 11:01:35;;;;;;;2.60;2.50;;;;;;;;;;4971577;28;20189;-86
2022/06/25 11:04:09;;;;;;;10.57;3.35;;;;;;;;;;4970917;28;20205;-86
2022/06/25 11:06:48;;;;;;;4.47;3.10;;;;;;;;;;4971519;28;20185;-87
2022/06/25 11:09:30;;;;;;;5.32;3.10;;;;;;;;;;4971442;28;20200;-87
2022/06/25 11:11:57;;;;;;;6.13;3.50;;;;;;;;;;4971547;28;20618;-87
2022/06/25 11:14:33;;;;;;;3.83;2.92;;;;;;;;;;4970841;28;20197;-87
2022/06/25 11:17:08;;;;;;;2.97;2.78;;;;;;;;;;5037449;28;20280;-87
2022/06/25 11:19:37;;;;;;;3.72;3.35;;;;;;;;;;5052114;28;20220;-86
2022/06/25 11:22:05;;;;;;;3.13;2.83;;;;;;;;;;5050235;28;20243;-87
2022/06/25 11:24:34;;;;;;;3.13;2.90;;;;;;;;;;5051698;28;20198;-88
2022/06/25 11:29:51;;;;;;;3.35;2.88;;;;;;;;;;5052556;28;20181;-88
2022/06/25 11:32:22;;;;;;;3.40;3.10;;;;;;;;;;5051833;28;20198;-87
2022/06/25 11:34:53;;;;;;;2.90;2.70;;;;;;;;;;5051983;28;20205;-88
2022/06/25 11:37:24;;;;;;;3.10;2.90;;;;;;;;;;5051985;28;20251;-88
2022/06/25 11:40:00;;;;;;;3.20;2.88;;;;;;;;;;5052043;28;20271;-88
2022/06/25 11:42:42;;;;;;;5.43;3.67;;;;;;;;;;5052596;28;20190;-87
2022/06/25 11:45:10;;;;;;;3.42;3.08;;;;;;;;;;5052175;28;20201;-88
2022/06/25 11:47:43;;;;;;;4.97;3.05;;;;;;;;;;5052173;28;20212;-88
2022/06/25 11:50:13;;;;;;;2.85;2.65;;;;;;;;;;5052378;28;20197;-88
2022/06/25 11:52:47;;;;;;;3.20;2.90;;;;;;;;;;5051825;28;20259;-87
2022/06/25 11:55:23;;;;;;;4.20;2.70;;;;;;;;;;5051707;28;20230;-88
2022/06/25 11:57:50;;;;;;;6.13;3.20;;;;;;;;;;5052049;28;20200;-88
2022/06/25 12:00:20;;;;;;;2.88;2.67;;;;;;;;;;5053008;28;20229;-88
2022/06/25 12:02:47;;;;;;;3.20;2.88;;;;;;;;;;5055795;28;20229;-88
2022/06/25 12:05:25;;;;;;;3.75;3.03;;;;;;;;;;5055807;28;20210;-87
2022/06/25 12:07:55;;;;;;;5.43;3.10;;;;;;;;;;5055766;28;20209;-88
2022/06/25 12:10:22;;;;;;;4.85;3.10;;;;;;;;;;5055420;28;20233;-87
2022/06/25 12:12:50;;;;;;;3.17;2.78;;;;;;;;;;5055664;28;20252;-88
2022/06/25 12:15:17;;;;;;;3.25;3.05;;;;;;;;;;5055331;28;20248;-88
2022/06/25 12:17:44;;;;;;;2.95;2.72;;;;;;;;;;5055846;28;20225;-87
2022/06/25 12:20:12;;;;;;;3.38;3.08;;;;;;;;;;5055889;28;20228;-88
2022/06/25 12:22:43;;;;;;;3.10;2.90;;;;;;;;;;5055686;28;20287;-87
2022/06/25 12:25:12;;;;;;;5.60;3.78;;;;;;;;;;5055520;28;20622;-87
2022/06/25 12:27:46;;;;;;;3.13;2.92;;;;;;;;;;5055275;28;20194;-88
2022/06/25 12:30:14;;;;;;;3.00;2.80;;;;;;;;;;5055406;28;20267;-88
2022/06/25 12:32:44;;;;;;;4.28;3.45;;;;;;;;;;5056061;28;20204;-88
2022/06/25 12:35:22;;;;;;;3.38;3.13;;;;;;;;;;5055257;28;20263;-88
2022/06/25 12:38:09;;;;;;;5.20;3.20;;;;;;;;;;5055088;28;20201;-88
2022/06/25 12:40:40;;;;;;;3.55;2.55;;;;;;;;;;5055192;28;20210;-87
2022/06/25 12:43:12;;;;;;;3.47;3.15;;;;;;;;;;5055209;28;20205;-87
2022/06/25 12:45:46;;;;;;;3.85;2.72;;;;;;;;;;5055009;28;20206;-87
2022/06/25 12:48:14;;;;;;;2.58;2.38;;;;;;;;;;5054637;28;20202;-88
2022/06/25 12:50:54;;;;;;;4.28;3.10;;;;;;;;;;5052797;28;20193;-87
2022/06/25 12:53:23;;;;;;;2.80;2.50;;;;;;;;;;5054707;28;20223;-88
2022/06/25 12:55:51;;;;;;;3.15;2.95;;;;;;;;;;5054479;28;20628;-87
2022/06/25 12:58:34;;;;;;;3.85;3.25;;;;;;;;;;5054762;28;20251;-87
2022/06/25 13:01:01;;;;;;;4.70;2.85;;;;;;;;;;5054643;28;20697;-87
2022/06/25 13:03:28;;;;;;;3.88;3.53;;;;;;;;;;5054451;28;20197;-87
2022/06/25 13:05:55;;;;;;;3.13;2.83;;;;;;;;;;5054645;28;20581;-88
2022/06/25 13:08:24;;;;;;;3.00;2.80;;;;;;;;;;5054370;28;20209;-87
2022/06/25 13:10:51;;;;;;;4.10;3.17;;;;;;;;;;5053828;28;20248;-88
2022/06/25 13:13:18;;;;;;;3.92;2.83;;;;;;;;;;5054586;28;20678;-88
2022/06/25 13:15:51;;;;;;;5.95;3.28;;;;;;;;;;5054168;28;20742;-87
2022/06/25 13:18:19;;;;;;;3.17;2.85;;;;;;;;;;5054253;28;20206;-87
2022/06/25 13:20:47;;;;;;;3.63;3.03;;;;;;;;;;5054523;28;20232;-87
2022/06/25 13:23:14;;;;;;;2.70;2.53;;;;;;;;;;5053985;28;20318;-87
2022/06/25 13:25:46;;;;;;;5.53;3.60;;;;;;;;;;5054248;28;20579;-87
2022/06/25 13:28:13;;;;;;;4.05;3.20;;;;;;;;;;5054414;28;20202;-88
2022/06/25 13:30:41;;;;;;;7.28;3.22;;;;;;;;;;5054013;28;20205;-87
2022/06/25 13:33:14;;;;;;;4.85;3.22;;;;;;;;;;5054667;28;20202;-88
2022/06/25 13:35:44;;;;;;;3.35;2.60;;;;;;;;;;5053854;28;20194;-87
2022/06/25 13:38:14;;;;;;;3.33;3.13;;;;;;;;;;5054164;28;20225;-87
2022/06/25 13:40:45;;;;;;;5.07;3.00;;;;;;;;;;5053603;28;20725;-87
2022/06/25 13:43:12;;;;;;;2.85;2.65;;;;;;;;;;5054029;28;20205;-88
2022/06/25 13:45:42;;;;;;;2.90;2.70;;;;;;;;;;5053801;28;20582;-87
2022/06/25 13:48:12;;;;;;;2.70;2.50;;;;;;;;;;5053689;28;20207;-87
2022/06/25 13:50:45;;;;;;;4.50;3.03;;;;;;;;;;5053525;28;20240;-87
2022/06/25 13:53:37;;;;;;;3.38;2.97;;;;;;;;;;5053895;28;20201;-87
2022/06/25 13:56:12;;;;;;;2.78;2.58;;;;;;;;;;5053407;28;20201;-87
2022/06/25 13:58:39;;;;;;;3.40;3.10;;;;;;;;;;5053500;28;20197;-87
2022/06/25 14:01:12;;;;;;;3.00;2.70;;;;;;;;;;5053638;28;20218;-88
2022/06/25 14:03:46;;;;;;;4.38;2.75;;;;;;;;;;5052979;28;20205;-87
2022/06/25 14:06:16;;;;;;;3.55;3.25;;;;;;;;;;5053648;28;20237;-87
2022/06/25 14:08:46;;;;;;;3.42;2.92;;;;;;;;;;5053189;28;20190;-87
2022/06/25 14:11:17;;;;;;;3.28;3.05;;;;;;;;;;5053009;28;20289;-87
2022/06/25 14:13:44;;;;;;;3.15;2.85;;;;;;;;;;5053329;28;20648;-87
2022/06/25 14:16:11;;;;;;;3.42;2.47;;;;;;;;;;5053098;28;20695;-87
2022/06/25 14:18:41;;;;;;;4.38;2.80;;;;;;;;;;5053299;28;20203;-87
2022/06/25 14:21:15;;;;;;;3.22;2.92;;;;;;;;;;5053007;28;20221;-87
2022/06/25 14:23:51;;;;;;;3.28;2.97;;;;;;;;;;5051418;28;20234;-87
2022/06/25 14:26:20;;;;;;;3.00;2.70;;;;;;;;;;5052665;28;20197;-87
2022/06/25 14:28:47;;;;;;;3.15;2.72;;;;;;;;;;5052919;28;20587;-87
2022/06/25 14:31:23;;;;;;;8.05;3.25;;;;;;;;;;5053035;28;20216;-87
2022/06/25 14:33:59;;;;;;;3.60;3.30;;;;;;;;;;5052619;28;20197;-87
2022/06/25 14:44:52;;;;;;;3.22;3.03;;;;;;;;;;5051971;28;20189;-88
2022/06/25 14:47:20;;;;;;;2.92;2.75;;;;;;;;;;5052553;28;20237;-87
2022/06/25 14:49:59;;;;;;;3.83;2.95;;;;;;;;;;5052562;28;20193;-87
2022/06/25 14:52:26;;;;;;;2.90;2.67;;;;;;;;;;5052817;28;20223;-87
2022/06/25 14:54:53;;;;;;;3.45;3.00;;;;;;;;;;5052211;28;20233;-87
2022/06/25 14:57:25;;;;;;;2.60;2.35;;;;;;;;;;5052650;28;20667;-87
2022/06/25 14:59:52;;;;;;;3.13;2.92;;;;;;;;;;5052149;28;20222;-88
2022/06/25 15:02:28;;;;;;;3.58;3.28;;;;;;;;;;5052285;28;20713;-87
2022/06/25 15:05:05;;;;;;;8.43;2.80;;;;;;;;;;5052013;28;20756;-87
2022/06/25 15:07:36;;;;;;;3.28;3.08;;;;;;;;;;5052316;28;20197;-88
2022/06/25 15:10:03;;;;;;;4.65;3.42;;;;;;;;;;5052116;28;20198;-87
2022/06/25 15:12:32;;;;;;;4.28;3.10;;;;;;;;;;5051752;28;20736;-87
2022/06/25 15:14:59;;;;;;;3.58;3.25;;;;;;;;;;5051862;28;20198;-88
2022/06/25 15:17:27;;;;;;;4.10;2.80;;;;;;;;;;5052655;28;20189;-87
2022/06/25 15:19:54;;;;;;;3.97;3.38;;;;;;;;;;5052217;28;20316;-87
2022/06/25 15:22:24;;;;;;;2.90;2.60;;;;;;;;;;5051925;28;20229;-87
2022/06/25 15:24:52;;;;;;;3.15;2.95;;;;;;;;;;5052003;28;20190;-87
2022/06/25 15:27:25;;;;;;;3.83;2.92;;;;;;;;;;5052107;28;20247;-88